Time;durP1;ratioP1;P1;durP2;ratioP2;P2;SDS_P1;SDS_P2;PMS_P1;PMS_P2;Temp;Humidity;BMP_temperature;BMP_pressure;BME280_temperature;BME280_humidity;BME280_pressure;Samples;Min_cycle;Max_cycle;Signal;HPM_P1;HPM_P2
2022/08/29 00:00:17;;;;;;;5.00;3.55;;;26.90;47.50;;;;;;5980342;29;20034;-79
2022/08/29 00:03:18;;;;;;;6.05;3.63;;;26.90;47.80;;;;;;5994723;29;20182;-79
2022/08/29 00:06:19;;;;;;;5.72;4.30;;;26.90;48.00;;;;;;6011739;29;20045;-77
2022/08/29 00:09:20;;;;;;;5.25;3.20;;;26.80;47.90;;;;;;6010866;29;20057;-77
2022/08/29 00:12:21;;;;;;;9.40;4.07;;;26.80;47.80;;;;;;6014838;29;20472;-77
2022/08/29 00:15:22;;;;;;;6.22;3.47;;;26.80;47.80;;;;;;5980669;29;20065;-77
2022/08/29 00:18:23;;;;;;;7.28;4.03;;;26.80;47.80;;;;;;6011347;29;20034;-77
2022/08/29 00:21:24;;;;;;;6.70;3.80;;;26.80;47.90;;;;;;5980834;29;20056;-77
2022/08/29 00:24:26;;;;;;;6.80;3.97;;;26.80;48.10;;;;;;6011456;29;20129;-77
2022/08/29 00:27:27;;;;;;;5.53;3.97;;;26.70;48.20;;;;;;6000303;29;20121;-77
2022/08/29 00:30:29;;;;;;;5.95;4.10;;;26.70;48.30;;;;;;6010980;29;20049;-77
2022/08/29 00:33:30;;;;;;;7.25;3.97;;;26.70;48.40;;;;;;6025979;29;20125;-77
2022/08/29 00:36:32;;;;;;;6.00;4.13;;;26.70;48.40;;;;;;6017175;29;20540;-77
2022/08/29 00:39:33;;;;;;;6.22;3.75;;;26.70;48.50;;;;;;5995419;29;20045;-77
2022/08/29 00:42:34;;;;;;;6.07;3.92;;;26.60;48.50;;;;;;6018875;29;20042;-77
2022/08/29 00:45:41;;;;;;;11.50;4.20;;;26.60;48.60;;;;;;6017037;29;20105;-78
2022/08/29 00:48:48;;;;;;;6.80;4.20;;;26.60;48.70;;;;;;6011421;29;20037;-77
2022/08/29 00:51:51;;;;;;;7.00;4.22;;;26.60;48.70;;;;;;6008670;29;20046;-79
2022/08/29 00:54:54;;;;;;;7.70;3.95;;;26.60;48.70;;;;;;6010426;29;20078;-77
2022/08/29 00:58:15;;;;;;;5.55;4.15;;;26.50;49.20;;;;;;6009168;29;20057;-80
2022/08/29 01:01:17;;;;;;;11.25;4.10;;;26.50;48.50;;;;;;6009431;29;20046;-77
2022/08/29 01:04:20;;;;;;;8.63;4.30;;;26.50;48.50;;;;;;5996898;29;20042;-77
2022/08/29 01:07:21;;;;;;;8.02;3.95;;;26.50;48.50;;;;;;6011339;29;20042;-77
2022/08/29 01:13:44;;;;;;;6.38;4.38;;;26.50;48.60;;;;;;6008677;29;20448;-77
2022/08/29 01:16:47;;;;;;;5.38;3.67;;;26.50;48.80;;;;;;6009729;29;20034;-77
2022/08/29 01:20:12;;;;;;;6.22;3.83;;;26.40;48.80;;;;;;6010390;29;20154;-78
2022/08/29 01:23:26;;;;;;;7.15;3.88;;;26.40;48.90;;;;;;6008847;29;20034;-78
2022/08/29 01:26:29;;;;;;;5.93;3.85;;;26.40;48.90;;;;;;6007691;29;20073;-78
2022/08/29 01:29:30;;;;;;;8.10;4.35;;;26.30;48.90;;;;;;6007918;29;20626;-78
2022/08/29 01:32:32;;;;;;;6.47;3.92;;;26.30;49.70;;;;;;6013280;29;20041;-78
2022/08/29 01:35:33;;;;;;;5.63;3.90;;;26.30;49.40;;;;;;6005303;29;20081;-77
2022/08/29 01:38:34;;;;;;;8.02;4.38;;;26.20;49.50;;;;;;6006270;29;20061;-77
2022/08/29 01:41:35;;;;;;;5.60;3.90;;;26.20;49.70;;;;;;6009214;29;20073;-77
2022/08/29 01:44:38;;;;;;;10.32;4.15;;;26.10;49.90;;;;;;6009132;29;20045;-78
2022/08/29 01:47:39;;;;;;;6.65;3.95;;;26.10;50.10;;;;;;6008450;29;20042;-77
2022/08/29 01:50:42;;;;;;;6.20;3.90;;;26.00;50.10;;;;;;6006085;29;20467;-79
2022/08/29 01:53:43;;;;;;;6.28;4.28;;;26.00;50.20;;;;;;6008044;29;20038;-77
2022/08/29 01:56:48;;;;;;;7.47;4.40;;;26.00;50.20;;;;;;6004624;29;20038;-78
2022/08/29 01:59:49;;;;;;;7.25;4.57;;;26.00;50.30;;;;;;6007434;29;20042;-78
2022/08/29 02:02:52;;;;;;;8.10;4.72;;;25.90;50.30;;;;;;6009652;29;20046;-76
2022/08/29 02:05:57;;;;;;;5.00;3.92;;;25.90;50.30;;;;;;6008874;29;20056;-77
2022/08/29 02:08:59;;;;;;;6.35;4.28;;;25.90;50.30;;;;;;6008378;29;20049;-77
2022/08/29 02:12:06;;;;;;;7.10;4.30;;;25.90;50.50;;;;;;6008806;29;20034;-79
2022/08/29 02:15:07;;;;;;;5.40;4.20;;;25.90;50.60;;;;;;5998225;29;20045;-76
2022/08/29 02:18:08;;;;;;;4.88;3.90;;;25.90;50.70;;;;;;6009424;29;20049;-77
2022/08/29 02:21:12;;;;;;;8.27;4.32;;;25.80;50.70;;;;;;6009025;29;20052;-79
2022/08/29 02:24:16;;;;;;;7.18;4.03;;;25.80;50.80;;;;;;6012483;29;20049;-79
2022/08/29 02:27:17;;;;;;;6.40;4.63;;;25.80;50.90;;;;;;6010268;29;20118;-78
2022/08/29 02:30:19;;;;;;;8.13;4.40;;;25.70;50.80;;;;;;6012702;29;20071;-78
2022/08/29 02:33:21;;;;;;;5.53;3.83;;;25.70;50.80;;;;;;6011938;29;20053;-78
2022/08/29 02:36:23;;;;;;;7.22;4.60;;;25.70;50.90;;;;;;6012605;29;20042;-77
2022/08/29 02:39:25;;;;;;;5.72;4.30;;;25.60;50.90;;;;;;6013319;29;20034;-77
2022/08/29 02:42:26;;;;;;;7.40;4.85;;;25.50;51.10;;;;;;6016966;29;20045;-78
2022/08/29 02:45:28;;;;;;;7.68;4.55;;;25.50;51.20;;;;;;6011572;29;20536;-77
2022/08/29 02:48:29;;;;;;;7.35;4.63;;;25.40;51.30;;;;;;6014967;29;20038;-78
2022/08/29 02:51:32;;;;;;;6.72;4.97;;;25.40;51.40;;;;;;6012882;29;20034;-78
2022/08/29 02:54:33;;;;;;;8.45;5.05;;;25.40;51.50;;;;;;6013468;29;20070;-78
2022/08/29 02:57:35;;;;;;;6.85;4.43;;;25.40;51.60;;;;;;6013647;29;20129;-78
2022/08/29 03:00:36;;;;;;;6.70;4.47;;;25.30;51.70;;;;;;6013095;29;20476;-79
2022/08/29 03:03:39;;;;;;;10.02;4.55;;;25.30;51.90;;;;;;6022042;29;20038;-79
2022/08/29 03:06:40;;;;;;;6.85;4.38;;;25.30;52.10;;;;;;6003869;29;20034;-77
2022/08/29 03:09:41;;;;;;;6.82;4.20;;;25.20;52.20;;;;;;5993432;29;20053;-79
2022/08/29 03:12:42;;;;;;;8.15;4.35;;;25.20;52.40;;;;;;6011443;29;20472;-79
2022/08/29 03:15:43;;;;;;;9.20;4.82;;;25.10;52.60;;;;;;6012431;29;20129;-78
2022/08/29 03:18:44;;;;;;;7.57;4.72;;;25.10;52.60;;;;;;6012945;29;20060;-77
2022/08/29 03:21:46;;;;;;;9.15;4.85;;;25.10;52.70;;;;;;6009661;29;20058;-77
2022/08/29 03:24:47;;;;;;;7.53;4.50;;;25.10;52.60;;;;;;6011998;29;20381;-78
2022/08/29 03:27:48;;;;;;;10.38;4.65;;;25.10;52.60;;;;;;5996382;29;20149;-77
2022/08/29 03:30:50;;;;;;;9.40;5.03;;;25.10;52.60;;;;;;6012548;29;20049;-77
2022/08/29 03:33:51;;;;;;;9.25;4.40;;;25.10;52.60;;;;;;6012293;29;20065;-77
2022/08/29 03:36:52;;;;;;;8.63;4.60;;;25.10;52.70;;;;;;6012303;29;20053;-79
2022/08/29 03:39:54;;;;;;;8.80;5.10;;;25.10;52.60;;;;;;6011741;29;20788;-81
2022/08/29 03:42:55;;;;;;;8.45;4.72;;;25.10;52.60;;;;;;6017980;29;20449;-77
2022/08/29 03:45:56;;;;;;;9.50;4.07;;;25.10;52.70;;;;;;6011803;29;20038;-78
2022/08/29 03:48:58;;;;;;;8.15;4.32;;;25.00;52.70;;;;;;6010666;29;20042;-78
2022/08/29 03:52:00;;;;;;;7.20;5.07;;;25.00;52.80;;;;;;6013501;29;20030;-80
2022/08/29 03:55:02;;;;;;;7.35;4.45;;;25.00;52.90;;;;;;6013484;29;20057;-78
2022/08/29 03:58:04;;;;;;;6.45;4.25;;;24.90;53.10;;;;;;6012376;29;20042;-78
2022/08/29 04:01:05;;;;;;;6.05;4.20;;;24.90;53.20;;;;;;6010611;29;20042;-79
2022/08/29 04:04:06;;;;;;;6.78;4.25;;;24.90;53.20;;;;;;6010302;29;20098;-78
2022/08/29 04:07:08;;;;;;;6.30;4.13;;;24.80;53.30;;;;;;6012524;29;20034;-79
2022/08/29 04:10:13;;;;;;;5.55;3.97;;;24.80;53.30;;;;;;5996895;29;20049;-78
2022/08/29 04:13:14;;;;;;;7.95;4.70;;;24.80;53.30;;;;;;6014038;29;20041;-79
2022/08/29 04:16:21;;;;;;;9.43;4.55;;;24.80;53.30;;;;;;6012207;29;20121;-78
2022/08/29 04:19:22;;;;;;;11.80;4.28;;;24.80;53.30;;;;;;6009728;29;20033;-79
2022/08/29 04:22:24;;;;;;;7.75;4.18;;;24.80;53.20;;;;;;6012319;29;20491;-78
2022/08/29 04:25:27;;;;;;;10.00;4.78;;;24.80;53.30;;;;;;6011690;29;20054;-78
2022/08/29 04:28:28;;;;;;;5.53;4.13;;;24.80;53.30;;;;;;5993960;29;20197;-78
2022/08/29 04:31:30;;;;;;;9.02;4.45;;;24.80;53.40;;;;;;5996050;29;20041;-78
2022/08/29 04:34:31;;;;;;;9.07;4.70;;;24.70;53.50;;;;;;5995519;29;20118;-78
2022/08/29 04:37:33;;;;;;;10.40;4.43;;;24.70;53.50;;;;;;5995060;29;20038;-78
2022/08/29 04:40:37;;;;;;;7.38;4.75;;;24.70;53.50;;;;;;6011778;29;20122;-78
2022/08/29 04:43:38;;;;;;;13.23;4.30;;;24.70;53.50;;;;;;5999756;29;20484;-76
2022/08/29 04:46:39;;;;;;;4.93;4.03;;;24.70;53.50;;;;;;5993601;29;20113;-77
2022/08/29 04:49:42;;;;;;;14.88;4.63;;;24.70;53.50;;;;;;6011236;29;20109;-76
2022/08/29 04:52:44;;;;;;;6.70;4.32;;;24.70;53.50;;;;;;6011445;29;20117;-78
2022/08/29 04:55:45;;;;;;;8.23;4.40;;;24.70;53.40;;;;;;5992284;29;20042;-78
2022/08/29 04:58:46;;;;;;;13.25;4.13;;;24.70;53.40;;;;;;5993378;29;20129;-78
2022/08/29 05:01:47;;;;;;;8.10;3.85;;;24.70;53.40;;;;;;5982649;29;20056;-78
2022/08/29 05:04:51;;;;;;;10.90;4.32;;;24.60;53.50;;;;;;5989549;29;20552;-78
2022/08/29 05:07:52;;;;;;;8.30;4.85;;;24.50;53.60;;;;;;5993270;29;20504;-80
2022/08/29 05:10:54;;;;;;;6.88;4.38;;;24.50;53.80;;;;;;5993853;29;20037;-77
2022/08/29 05:13:57;;;;;;;8.70;4.43;;;24.40;54.00;;;;;;5995842;29;20030;-79
2022/08/29 05:16:58;;;;;;;7.55;4.65;;;24.30;54.20;;;;;;5995790;29;20045;-76
2022/08/29 05:19:59;;;;;;;5.60;4.20;;;24.30;54.30;;;;;;5998972;29;20372;-77
2022/08/29 05:23:01;;;;;;;4.85;3.42;;;24.30;54.40;;;;;;6011584;29;20327;-77
2022/08/29 05:26:04;;;;;;;9.63;4.43;;;24.30;54.50;;;;;;6010193;29;20106;-79
2022/08/29 05:29:08;;;;;;;6.78;4.32;;;24.20;54.60;;;;;;6006952;29;20034;-77
2022/08/29 05:32:13;;;;;;;8.13;4.80;;;24.20;54.70;;;;;;5979955;29;20083;-77
2022/08/29 05:35:14;;;;;;;13.18;4.32;;;24.20;54.70;;;;;;6011308;29;20468;-75
2022/08/29 05:38:16;;;;;;;8.65;5.40;;;24.20;54.70;;;;;;6010968;29;20081;-77
2022/08/29 05:41:18;;;;;;;7.97;3.90;;;24.20;54.70;;;;;;6011182;29;20056;-78
2022/08/29 05:44:18;;;;;;;8.00;4.47;;;24.20;54.70;;;;;;5980396;29;20041;-78
2022/08/29 05:47:20;;;;;;;11.10;4.78;;;24.20;54.70;;;;;;5995649;29;20936;-78
2022/08/29 05:50:22;;;;;;;9.20;4.50;;;24.10;54.70;;;;;;6010888;29;20042;-78
2022/08/29 05:53:24;;;;;;;7.97;4.53;;;24.10;54.60;;;;;;6010118;29;20056;-79
2022/08/29 05:56:26;;;;;;;7.18;4.40;;;24.10;54.60;;;;;;6019199;29;20046;-78
2022/08/29 05:59:27;;;;;;;5.90;4.22;;;24.20;54.70;;;;;;6000743;29;20045;-78
2022/08/29 06:02:28;;;;;;;11.43;4.80;;;24.20;54.70;;;;;;6000794;29;20053;-78
2022/08/29 06:05:29;;;;;;;9.20;4.85;;;24.20;54.50;;;;;;6015411;29;20459;-78
2022/08/29 06:08:30;;;;;;;6.28;4.53;;;24.20;54.40;;;;;;6016814;29;20046;-78
2022/08/29 06:11:32;;;;;;;11.23;4.85;;;24.20;54.40;;;;;;6017373;29;20044;-77
2022/08/29 06:14:34;;;;;;;7.70;4.72;;;24.30;54.40;;;;;;5994301;29;20073;-77
2022/08/29 06:17:36;;;;;;;9.43;5.13;;;24.30;54.40;;;;;;6020259;29;20110;-77
2022/08/29 06:20:38;;;;;;;9.65;5.60;;;24.30;54.40;;;;;;6015987;29;20029;-79
2022/08/29 06:23:41;;;;;;;8.80;5.35;;;24.40;54.30;;;;;;6017963;29;20034;-78
2022/08/29 06:26:44;;;;;;;8.05;5.13;;;24.40;54.20;;;;;;6009152;29;20061;-78
2022/08/29 06:29:45;;;;;;;9.43;4.70;;;24.50;54.10;;;;;;6022335;29;20034;-79
2022/08/29 06:32:46;;;;;;;10.20;4.57;;;24.50;54.00;;;;;;6026909;29;20038;-79
2022/08/29 06:35:47;;;;;;;8.07;4.90;;;24.60;54.00;;;;;;6029393;29;20049;-78
2022/08/29 06:38:48;;;;;;;7.25;4.97;;;24.70;53.80;;;;;;6026728;29;20115;-79
2022/08/29 06:41:49;;;;;;;8.57;4.82;;;24.70;53.60;;;;;;6026211;29;20423;-77
2022/08/29 06:44:51;;;;;;;7.13;4.65;;;24.80;53.40;;;;;;6023617;29;20190;-80
2022/08/29 06:47:52;;;;;;;9.23;5.10;;;24.90;53.20;;;;;;6026188;29;20053;-80
2022/08/29 06:50:54;;;;;;;11.13;5.47;;;24.90;53.00;;;;;;6022678;29;20072;-78
2022/08/29 06:53:55;;;;;;;8.73;4.57;;;25.00;52.90;;;;;;6024206;29;20052;-79
2022/08/29 06:56:57;;;;;;;7.35;4.60;;;25.10;52.90;;;;;;6014921;29;20048;-79
2022/08/29 06:59:58;;;;;;;10.05;5.15;;;25.10;52.70;;;;;;6017023;29;20464;-79
2022/08/29 07:02:59;;;;;;;7.22;4.70;;;25.20;52.60;;;;;;6012965;29;20149;-79
2022/08/29 07:06:00;;;;;;;9.25;4.80;;;25.20;52.40;;;;;;6028677;29;20046;-78
2022/08/29 07:09:02;;;;;;;5.53;4.32;;;25.30;52.40;;;;;;5995926;29;20170;-78
2022/08/29 07:12:04;;;;;;;7.25;5.30;;;25.30;52.20;;;;;;6013521;29;20038;-78
2022/08/29 07:15:07;;;;;;;7.15;4.63;;;25.40;52.10;;;;;;6010228;29;20132;-78
2022/08/29 07:18:08;;;;;;;7.63;4.78;;;25.50;52.00;;;;;;5994966;29;20110;-79
2022/08/29 07:21:13;;;;;;;9.90;4.32;;;25.50;51.90;;;;;;5998108;29;20049;-78
2022/08/29 07:24:14;;;;;;;10.80;5.30;;;25.70;51.80;;;;;;6014391;29;20149;-78
2022/08/29 07:27:16;;;;;;;8.98;4.70;;;25.80;51.50;;;;;;6013854;29;20126;-79
2022/08/29 07:30:19;;;;;;;8.98;4.60;;;26.00;51.10;;;;;;6015180;29;20038;-80
2022/08/29 07:33:20;;;;;;;15.65;4.90;;;26.10;50.90;;;;;;6013566;29;20385;-79
2022/08/29 07:36:22;;;;;;;5.35;3.60;;;26.10;50.70;;;;;;5997591;29;20053;-79
2022/08/29 07:39:23;;;;;;;7.07;4.10;;;26.20;50.50;;;;;;6013244;29;20483;-79
2022/08/29 07:42:24;;;;;;;7.85;3.90;;;26.20;50.30;;;;;;5993086;29;20046;-79
2022/08/29 07:45:25;;;;;;;5.88;4.00;;;26.30;50.20;;;;;;5997039;29;20387;-79
2022/08/29 07:48:26;;;;;;;5.82;4.10;;;26.40;50.10;;;;;;6013862;29;20050;-78
2022/08/29 07:51:28;;;;;;;7.38;4.20;;;26.50;49.80;;;;;;5992441;29;20065;-79
2022/08/29 07:54:29;;;;;;;5.90;3.70;;;26.70;49.40;;;;;;6017083;29;20058;-79
2022/08/29 07:57:30;;;;;;;7.47;4.47;;;26.80;49.20;;;;;;5997309;29;20030;-79
2022/08/29 08:00:32;;;;;;;7.18;4.95;;;26.90;49.30;;;;;;5992241;29;20086;-80
2022/08/29 08:03:34;;;;;;;8.65;4.03;;;27.00;48.40;;;;;;6013387;29;20121;-78
2022/08/29 08:06:36;;;;;;;4.45;3.67;;;27.20;48.10;;;;;;5997737;29;20049;-80
2022/08/29 08:09:38;;;;;;;12.45;4.10;;;27.30;47.70;;;;;;5981640;29;20433;-78
2022/08/29 08:12:40;;;;;;;7.82;4.32;;;27.40;47.60;;;;;;5996378;29;20030;-78
2022/08/29 08:15:41;;;;;;;8.27;4.25;;;27.50;47.40;;;;;;5999510;29;20085;-78
2022/08/29 08:18:43;;;;;;;5.60;3.97;;;27.60;47.00;;;;;;6013301;29;20141;-78
2022/08/29 08:21:44;;;;;;;11.88;4.05;;;27.70;46.70;;;;;;5994522;29;20064;-79
2022/08/29 08:24:47;;;;;;;5.28;3.97;;;27.80;46.50;;;;;;5980234;29;20065;-78
2022/08/29 08:27:48;;;;;;;5.75;4.03;;;27.90;46.30;;;;;;6026177;29;20045;-78
2022/08/29 08:30:49;;;;;;;17.83;4.75;;;28.10;46.30;;;;;;6014874;29;20062;-79
2022/08/29 08:33:52;;;;;;;10.93;4.20;;;28.10;45.80;;;;;;5999710;29;20186;-78
2022/08/29 08:36:53;;;;;;;7.60;4.35;;;28.30;45.60;;;;;;6025176;29;20042;-78
2022/08/29 08:39:56;;;;;;;5.88;3.92;;;28.40;45.40;;;;;;6029869;29;20046;-80
2022/08/29 08:43:00;;;;;;;8.20;4.00;;;28.50;45.10;;;;;;6032261;29;20057;-79
2022/08/29 08:46:02;;;;;;;7.75;4.63;;;28.50;44.90;;;;;;6032864;29;20083;-78
2022/08/29 08:49:16;;;;;;;10.80;3.97;;;28.60;44.80;;;;;;6025920;29;20102;-80
2022/08/29 08:52:50;;;;;;;8.57;4.20;;;28.70;44.60;;;;;;6020121;29;20071;-80
2022/08/29 08:55:54;;;;;;;6.25;4.55;;;28.80;44.50;;;;;;6017386;29;20049;-78
2022/08/29 08:59:20;;;;;;;8.40;4.60;;;29.00;44.10;;;;;;6012871;29;20113;-79
2022/08/29 09:02:40;;;;;;;9.63;5.55;;;29.10;43.80;;;;;;6013544;29;20041;-78
2022/08/29 09:06:16;;;;;;;11.88;4.53;;;29.20;43.70;;;;;;6006779;29;20045;-80
2022/08/29 09:09:27;;;;;;;10.15;4.95;;;29.30;43.20;;;;;;5926606;29;20065;-79
2022/08/29 09:12:43;;;;;;;10.13;5.05;;;29.40;43.20;;;;;;5916961;29;20046;-80
2022/08/29 09:15:47;;;;;;;8.02;5.05;;;29.40;43.10;;;;;;5952334;29;20208;-79
2022/08/29 09:18:48;;;;;;;5.95;4.45;;;29.50;43.00;;;;;;5940801;29;20091;-79
2022/08/29 09:21:52;;;;;;;10.00;5.28;;;29.60;42.90;;;;;;5952582;29;20055;-80
2022/08/29 09:25:05;;;;;;;10.45;4.63;;;29.70;42.70;;;;;;5939737;29;20055;-78
2022/08/29 09:28:08;;;;;;;6.28;4.65;;;29.70;42.60;;;;;;5937289;29;20047;-78
2022/08/29 09:31:34;;;;;;;11.43;5.45;;;29.90;42.40;;;;;;5938397;29;20074;-80
2022/08/29 09:34:39;;;;;;;13.05;4.15;;;29.90;42.20;;;;;;5940486;29;20051;-81
2022/08/29 09:37:40;;;;;;;8.20;4.63;;;29.90;42.10;;;;;;5952835;29;20374;-78
2022/08/29 09:40:41;;;;;;;9.68;4.57;;;30.00;42.00;;;;;;5951565;29;20051;-79
2022/08/29 09:43:42;;;;;;;11.82;4.10;;;30.00;42.00;;;;;;5947548;29;20373;-80
2022/08/29 09:46:44;;;;;;;8.00;4.35;;;30.10;41.90;;;;;;6000039;29;20105;-79
2022/08/29 09:50:00;;;;;;;8.48;4.75;;;30.20;41.90;;;;;;6003503;29;20549;-80
2022/08/29 09:53:03;;;;;;;6.78;4.30;;;30.30;41.60;;;;;;6012079;29;20038;-79
2022/08/29 09:56:07;;;;;;;8.57;3.95;;;30.30;41.40;;;;;;6015844;29;20148;-79
2022/08/29 09:59:20;;;;;;;7.95;4.78;;;30.30;41.40;;;;;;6006338;29;20042;-78
2022/08/29 10:02:31;;;;;;;7.43;5.32;;;30.40;41.10;;;;;;6003158;29;20045;-79
2022/08/29 10:05:45;;;;;;;8.65;5.10;;;30.50;40.80;;;;;;6008160;29;20098;-79
2022/08/29 10:09:26;;;;;;;10.07;3.92;;;30.60;40.70;;;;;;6011967;29;20052;-79
2022/08/29 10:13:01;;;;;;;8.45;4.10;;;30.70;40.50;;;;;;5941526;29;20369;-80
2022/08/29 10:16:02;;;;;;;11.55;5.38;;;30.80;40.40;;;;;;5881295;30;20149;-79
2022/08/29 10:19:12;;;;;;;10.50;3.90;;;30.90;40.00;;;;;;5890187;30;20041;-78
2022/08/29 10:22:28;;;;;;;7.63;5.05;;;30.90;39.90;;;;;;5893118;30;20040;-79
2022/08/29 10:25:38;;;;;;;8.38;4.32;;;31.00;39.50;;;;;;5887026;30;20119;-78
2022/08/29 10:28:48;;;;;;;5.45;3.80;;;31.00;39.50;;;;;;5890941;30;20044;-79
2022/08/29 10:32:13;;;;;;;7.32;5.10;;;31.10;39.40;;;;;;5884159;30;20052;-80
2022/08/29 10:35:42;;;;;;;7.80;4.45;;;31.20;39.10;;;;;;5887709;30;20127;-80
2022/08/29 10:38:45;;;;;;;6.22;4.28;;;31.30;39.10;;;;;;5890904;30;20132;-79
2022/08/29 10:41:56;;;;;;;22.38;4.60;;;31.30;38.90;;;;;;5889473;30;20051;-79
2022/08/29 10:45:18;;;;;;;13.05;4.72;;;31.40;38.90;;;;;;5895504;30;20462;-78
2022/08/29 10:48:36;;;;;;;6.60;4.30;;;31.60;38.60;;;;;;5894553;30;20043;-79
2022/08/29 10:52:02;;;;;;;6.88;4.38;;;31.90;38.30;;;;;;5935034;29;20120;-79
2022/08/29 10:55:47;;;;;;;6.55;3.72;;;32.40;37.70;;;;;;6015578;29;20136;-79
2022/08/29 10:59:02;;;;;;;6.30;4.32;;;33.00;36.90;;;;;;6008299;29;20053;-79
2022/08/29 11:02:21;;;;;;;7.32;4.85;;;33.50;36.20;;;;;;6010217;29;20034;-79
2022/08/29 11:05:27;;;;;;;14.00;5.32;;;33.80;35.60;;;;;;5995268;29;20487;-79
2022/08/29 11:08:37;;;;;;;5.32;4.55;;;34.30;34.90;;;;;;6009184;29;20030;-78
2022/08/29 11:11:48;;;;;;;7.05;3.83;;;34.50;33.80;;;;;;6006909;29;20066;-79
2022/08/29 11:14:51;;;;;;;5.10;3.67;;;34.80;33.40;;;;;;6007815;29;20081;-79
2022/08/29 11:18:06;;;;;;;7.70;4.10;;;35.00;32.90;;;;;;6008455;29;20472;-79
2022/08/29 11:21:15;;;;;;;5.88;4.40;;;35.20;32.00;;;;;;6011592;29;20481;-78
2022/08/29 11:24:19;;;;;;;4.57;3.53;;;35.30;31.70;;;;;;6010362;29;20807;-79
2022/08/29 11:27:33;;;;;;;8.73;3.80;;;35.50;31.60;;;;;;6025008;29;20065;-79
2022/08/29 11:30:37;;;;;;;5.25;3.58;;;35.80;31.30;;;;;;6010508;29;20057;-79
2022/08/29 11:33:57;;;;;;;5.40;3.10;;;36.00;30.80;;;;;;6011823;29;20523;-79
2022/08/29 11:37:06;;;;;;;5.55;3.78;;;36.20;30.30;;;;;;6010598;29;20042;-78
2022/08/29 11:40:36;;;;;;;7.35;3.60;;;36.30;29.90;;;;;;6019711;29;20052;-79
2022/08/29 11:43:47;;;;;;;8.05;3.28;;;36.40;29.70;;;;;;6009101;29;20046;-79
2022/08/29 11:46:50;;;;;;;4.15;3.13;;;36.40;29.40;;;;;;5997895;29;20061;-80
2022/08/29 11:49:51;;;;;;;6.38;3.67;;;36.50;29.10;;;;;;6009849;29;20122;-79
2022/08/29 11:52:55;;;;;;;13.55;4.00;;;36.60;28.80;;;;;;6008642;29;20457;-79
2022/08/29 11:56:11;;;;;;;124.53;7.70;;;36.70;28.60;;;;;;6009755;29;20046;-77
2022/08/29 12:00:01;;;;;;;27.08;3.63;;;37.00;28.10;;;;;;6013222;29;20042;-79
2022/08/29 12:03:04;;;;;;;15.23;3.35;;;37.40;27.80;;;;;;5963836;29;20579;-78
2022/08/29 12:06:41;;;;;;;4.13;3.00;;;37.80;27.30;;;;;;5965779;29;20106;-79
2022/08/29 12:09:48;;;;;;;3.55;2.97;;;38.20;26.90;;;;;;5930826;29;20055;-78
2022/08/29 12:12:57;;;;;;;8.57;3.80;;;38.50;26.50;;;;;;5966530;29;20153;-78
2022/08/29 12:16:08;;;;;;;4.10;3.05;;;38.80;26.20;;;;;;5944950;29;20066;-78
2022/08/29 12:19:09;;;;;;;5.10;3.00;;;39.10;25.80;;;;;;5960194;29;20556;-78
2022/08/29 12:22:10;;;;;;;19.63;4.07;;;39.50;25.10;;;;;;5963216;29;20039;-78
2022/08/29 12:25:28;;;;;;;11.57;3.65;;;39.70;24.90;;;;;;5941823;29;20510;-78
2022/08/29 12:28:58;;;;;;;9.85;3.58;;;40.20;24.70;;;;;;5960002;29;20207;-79
2022/08/29 12:32:20;;;;;;;5.55;2.60;;;40.70;24.10;;;;;;5958460;29;20383;-79
2022/08/29 12:36:00;;;;;;;3.63;2.63;;;41.30;23.20;;;;;;5964898;29;20050;-79
2022/08/29 12:39:39;;;;;;;9.00;2.67;;;41.60;22.40;;;;;;5961148;29;20113;-80
2022/08/29 12:43:05;;;;;;;28.02;2.75;;;41.50;22.00;;;;;;6001381;29;20125;-79
2022/08/29 12:46:23;;;;;;;13.45;2.53;;;41.80;21.60;;;;;;6005111;29;20045;-79
2022/08/29 12:49:30;;;;;;;29.65;3.17;;;42.20;21.20;;;;;;6007298;29;20132;-79
2022/08/29 12:52:35;;;;;;;42.92;3.30;;;42.70;20.60;;;;;;6005871;29;20034;-79
2022/08/29 12:55:44;;;;;;;16.95;2.25;;;43.00;19.90;;;;;;6009768;29;20069;-79
2022/08/29 12:58:56;;;;;;;49.20;3.63;;;43.10;19.20;;;;;;6007692;29;20330;-80
2022/08/29 13:01:57;;;;;;;20.05;2.17;;;43.10;19.00;;;;;;6006901;29;20046;-78
2022/08/29 13:04:59;;;;;;;5.63;1.92;;;43.30;18.70;;;;;;6007839;29;20057;-80
2022/08/29 13:08:14;;;;;;;7.85;1.92;;;43.60;18.10;;;;;;6008424;29;20450;-79
2022/08/29 13:11:19;;;;;;;8.88;1.80;;;44.00;17.50;;;;;;6006044;29;20046;-79
2022/08/29 13:14:22;;;;;;;2.72;1.83;;;44.30;17.40;;;;;;6008727;29;20053;-79
2022/08/29 13:17:35;;;;;;;3.35;1.67;;;44.50;17.10;;;;;;6023010;29;20098;-79
2022/08/29 13:20:42;;;;;;;2.00;1.80;;;44.60;17.10;;;;;;6000768;29;20062;-79
2022/08/29 13:23:45;;;;;;;8.80;1.63;;;44.70;17.10;;;;;;6009573;29;20117;-79
2022/08/29 13:26:53;;;;;;;4.70;2.08;;;44.70;17.10;;;;;;6009708;29;20061;-79
2022/08/29 13:29:59;;;;;;;3.58;2.08;;;44.90;17.00;;;;;;6007465;29;20043;-78
2022/08/29 13:33:00;;;;;;;5.95;1.90;;;45.40;16.80;;;;;;6001999;29;20066;-79
2022/08/29 13:36:30;;;;;;;2.95;2.08;;;46.00;16.60;;;;;;5989421;29;20149;-78
2022/08/29 13:39:33;;;;;;;9.07;1.90;;;46.50;16.10;;;;;;6004051;29;20166;-79
2022/08/29 13:42:43;;;;;;;5.78;1.90;;;46.90;15.90;;;;;;5989150;29;20185;-79
2022/08/29 13:45:45;;;;;;;4.72;1.55;;;47.10;15.70;;;;;;6005319;29;20049;-79
2022/08/29 13:48:46;;;;;;;8.05;2.10;;;47.20;15.40;;;;;;6005563;29;20046;-80
2022/08/29 13:51:47;;;;;;;2.38;1.88;;;47.20;15.40;;;;;;6007599;29;20804;-79
2022/08/29 13:54:48;;;;;;;10.48;2.10;;;46.90;15.40;;;;;;6003573;29;20053;-79
2022/08/29 13:57:52;;;;;;;3.20;2.08;;;46.70;15.50;;;;;;6003072;29;20041;-79
2022/08/29 14:00:54;;;;;;;3.05;1.77;;;46.70;15.40;;;;;;6000301;29;20042;-79
2022/08/29 14:03:56;;;;;;;3.47;1.83;;;46.80;15.30;;;;;;6006637;29;20053;-78
2022/08/29 14:06:58;;;;;;;3.65;1.85;;;46.70;15.20;;;;;;6014846;29;20049;-79
2022/08/29 14:10:00;;;;;;;6.25;2.13;;;46.40;15.30;;;;;;6014020;29;20061;-79
2022/08/29 14:13:01;;;;;;;2.55;1.77;;;45.50;15.80;;;;;;6020334;29;20532;-79
2022/08/29 14:16:03;;;;;;;5.88;1.98;;;44.40;16.40;;;;;;6025690;29;20061;-79
2022/08/29 14:19:04;;;;;;;7.28;2.08;;;43.40;16.90;;;;;;6044958;29;20177;-80
2022/08/29 14:22:05;;;;;;;4.30;1.77;;;42.60;17.40;;;;;;6027444;29;20048;-79
2022/08/29 14:25:08;;;;;;;8.45;2.45;;;41.80;17.90;;;;;;6018979;29;20038;-79
2022/08/29 14:28:09;;;;;;;3.35;1.90;;;41.10;18.40;;;;;;6014111;29;20118;-77
2022/08/29 14:31:10;;;;;;;4.60;1.88;;;40.50;19.40;;;;;;6008364;29;20041;-79
2022/08/29 14:34:12;;;;;;;10.63;2.28;;;39.90;19.40;;;;;;6001260;29;20043;-79
2022/08/29 14:37:13;;;;;;;5.63;2.22;;;39.40;19.90;;;;;;5998491;29;20334;-77
2022/08/29 14:40:14;;;;;;;3.00;2.17;;;39.00;20.30;;;;;;6012668;29;20049;-79
2022/08/29 14:43:15;;;;;;;5.70;2.13;;;38.60;20.70;;;;;;5987911;29;20045;-79
2022/08/29 14:46:17;;;;;;;5.00;2.97;;;38.30;20.90;;;;;;6011726;29;20034;-78
2022/08/29 14:49:18;;;;;;;3.22;2.30;;;38.00;21.20;;;;;;6015884;29;20041;-79
2022/08/29 14:52:19;;;;;;;4.38;2.00;;;37.80;21.50;;;;;;5997346;29;20045;-80
2022/08/29 14:55:21;;;;;;;5.63;2.20;;;37.60;21.70;;;;;;6014794;29;20483;-79
2022/08/29 14:58:22;;;;;;;5.43;2.47;;;37.40;21.90;;;;;;6010981;29;20469;-78
2022/08/29 15:01:23;;;;;;;2.50;2.30;;;37.30;22.20;;;;;;6014773;29;20491;-79
2022/08/29 15:04:24;;;;;;;12.60;2.92;;;37.10;22.40;;;;;;6009105;29;20040;-78
2022/08/29 15:07:26;;;;;;;3.63;2.45;;;36.90;22.50;;;;;;6010844;29;20480;-79
2022/08/29 15:10:27;;;;;;;5.20;2.55;;;36.90;22.80;;;;;;6010204;29;20065;-79
2022/08/29 15:13:28;;;;;;;5.45;2.40;;;36.80;22.90;;;;;;6008335;29;20045;-77
2022/08/29 15:16:30;;;;;;;4.93;2.28;;;36.70;23.10;;;;;;5992623;29;20390;-80
2022/08/29 15:19:31;;;;;;;3.22;2.20;;;36.60;23.20;;;;;;6003600;29;20372;-79
2022/08/29 15:22:33;;;;;;;3.38;2.40;;;36.60;23.30;;;;;;5991410;29;20107;-79
2022/08/29 15:25:35;;;;;;;3.13;2.35;;;36.50;23.40;;;;;;6004399;29;20045;-79
2022/08/29 15:28:36;;;;;;;2.53;2.10;;;36.50;23.60;;;;;;6010162;29;20117;-80
2022/08/29 15:31:37;;;;;;;3.38;2.40;;;36.40;23.80;;;;;;6014709;29;20042;-80
2022/08/29 15:34:39;;;;;;;3.17;2.50;;;36.30;23.80;;;;;;6001210;29;20430;-78
2022/08/29 15:37:40;;;;;;;4.63;2.28;;;36.30;24.00;;;;;;6005871;29;20429;-79
2022/08/29 15:40:41;;;;;;;3.25;2.20;;;36.20;24.00;;;;;;6010467;29;20050;-79
2022/08/29 15:43:42;;;;;;;3.25;2.17;;;36.20;24.20;;;;;;6009287;29;20066;-79
2022/08/29 15:46:44;;;;;;;4.07;2.40;;;36.20;24.20;;;;;;5993987;29;20068;-79
2022/08/29 15:49:45;;;;;;;2.90;2.20;;;36.20;24.40;;;;;;6007962;29;20046;-78
2022/08/29 15:52:46;;;;;;;5.70;2.40;;;36.20;24.60;;;;;;6009432;29;20090;-78
2022/08/29 15:55:47;;;;;;;2.80;2.35;;;36.00;24.60;;;;;;6008702;29;20457;-78
2022/08/29 15:58:48;;;;;;;13.13;2.63;;;36.30;24.60;;;;;;6009011;29;20053;-78
2022/08/29 16:01:52;;;;;;;4.72;2.42;;;36.70;24.20;;;;;;6011366;29;20061;-77
2022/08/29 16:04:55;;;;;;;3.55;2.17;;;38.00;23.40;;;;;;6009808;29;20037;-78